Terminal Aerodrome Forecast
Issued by NWS Corpus Christi, TX

Home | Current Version | Previous Version | Text Only | Print | Product List | Glossary On
Versions: 1 2 3 4 5 6 7 8 9 10 11 12 13 14 15 16 17 18 19 20 21 22
000
FTUS44 KCRP 292340
TAFCRP
TAF
KCRP 292340Z 3000/3024 17018G25KT P6SM SCT020 BKN030 OVC200
     FM300300 15012G18KT P6SM BKN025 OVC040
     FM300700 17004KT 6SM HZ BKN012 OVC025
     FM301400 18007KT P6SM VCSH BKN015
     FM301800 VRB03KT P6SM VCTS BKN025CB
     FM302100 12012KT P6SM SCT035=

USA.gov is the U.S. government's official web portal to all federal, state and local government web resources and services.